Gillette, WY

3:30 PM MDT on September 19, 2014 (GMT -0600)
Gillette-Campbell County | Change Station
CLOSE
Current Station
Airport
Location: Gillette,
Elevation: 4364 ft
Nearby Weather Stations

Elev 4364 ft 44.34 °N, 105.54 °W | Updated 37 minutes ago

Clear
Clear
77 °F
Feels Like 77 °F
N
12
Wind Variable Wind from North
Gusts 16 mph

Today
High -- | Low -- °F
--% Chance of Precip.
Yesterday
High -- | Low -- °F
Precip. -- in
6:46 AM 7:05 PM
Waning Crescent, 17% visible
Pressure 29.79 in
Visibility 10.0 miles
Clouds Few 7000 ft
Dew Point 47 °F
Humidity 34%
Rainfall 0.02 in
Snow Depth 0 in , 0 in , 0 in
UV 5 out of 12
Pollen 5.40 out of 12
Air Quality Not available.
Flu Activity Not available.
METAR KGCC 192053Z AUTO 01010G14KT 10SM FEW070 25/08 A2992 RMK AO2 SLP088 T02500083 58004

More Conditions Fewer Conditions

Pressure 29.79 in
Visibility 10.0 miles
Clouds Few 7000 ft
Dew Point 47 °F
Humidity 34%
Rainfall 0.02 in
Snow Depth 0 in , 0 in , 0 in
UV 5 out of 12
Pollen 5.40 out of 12
Air Quality Not available.
Flu Activity Not available.
METAR KGCC 192053Z AUTO 01010G14KT 10SM FEW070 25/08 A2992 RMK AO2 SLP088 T02500083 58004

More Conditions Fewer Conditions

10-Day Weather Forecast

Almanac

Astronomy

Sep. 19, 2014 Rise Set
Actual Time 6:46 AM MDT 7:05 PM MDT
Civil Twilight 6:17 AM MDT 7:34 PM MDT
Nautical Twilight 5:42 AM MDT 8:09 PM MDT
Astronomical Twilight 5:07 AM MDT 8:44 PM MDT
Moon 2:25 AM MDT 4:43 PM MDT
Length of Visible Light 13h 17m
Length of Day
12h 19m
Tomorrow will be 3m 4s shorter.
Waning Crescent, 17% of the Moon is Illuminated
Today
Waning Crescent
Sep 24
New
Oct 1
First Quarter
Oct 8
Full
Oct 15
Last Quarter

Today's Extremes

State Highs State Lows

Community

WunderPhotos

Upload Photos

1,754,703 photos uploaded!

WunderBlogs® & News

By Dr. Jeff Masters
Director of Meteorology, Weather Underground
By Kari Strenfel
Meteorologist, Weather Underground
By Christopher C. Burt
Weather Historian, Weather Underground
September 19, 2014
September 19, 2014
September 19, 2014

Nearby

Snow Depth

Station Depth Elevation
Bald Mountain 0 in 9380 ft
Wolverine 0 in 7650 ft
Sylvan Road 0 in 7120 ft
Lewis Lake Divide 0 in 7850 ft
Spring Creek Divide 0 in 9000 ft

Earthquake Activity

City Distance Mag. Time & Date
No recent earthquake activity has been reported nearby.
Minimum magnitude displayed is 2.5.

Coastal Water Temperatures

Place Temperature
No Stations Reporting

Nearby Weather Stations